sensor_id;sensor_type;location;lat;lon;timestamp;pressure;altitude;pressure_sealevel;temperature;humidity
42169;BME280;27838;43.858;25.974;2023-01-31T00:01:26;100521.38;;;4.98;55.39
42169;BME280;27838;43.858;25.974;2023-01-31T00:03:59;100525.81;;;5.03;55.33
42169;BME280;27838;43.858;25.974;2023-01-31T00:06:33;100522.50;;;5.10;54.80
42169;BME280;27838;43.858;25.974;2023-01-31T00:09:02;100534.69;;;5.18;54.94
42169;BME280;27838;43.858;25.974;2023-01-31T00:11:29;100531.09;;;5.09;55.29
42169;BME280;27838;43.858;25.974;2023-01-31T00:13:58;100523.22;;;5.05;55.07
42169;BME280;27838;43.858;25.974;2023-01-31T00:16:25;100508.50;;;4.99;55.50
42169;BME280;27838;43.858;25.974;2023-01-31T00:18:52;100516.03;;;4.88;55.02
42169;BME280;27838;43.858;25.974;2023-01-31T00:21:21;100511.56;;;4.80;55.02
42169;BME280;27838;43.858;25.974;2023-01-31T00:23:48;100527.78;;;4.72;55.61
42169;BME280;27838;43.858;25.974;2023-01-31T00:26:23;100511.50;;;4.77;55.43
42169;BME280;27838;43.858;25.974;2023-01-31T00:28:52;100519.97;;;4.69;55.97
42169;BME280;27838;43.858;25.974;2023-01-31T00:31:20;100519.06;;;4.67;55.61
42169;BME280;27838;43.858;25.974;2023-01-31T00:33:48;100507.16;;;4.74;56.03
42169;BME280;27838;43.858;25.974;2023-01-31T00:36:18;100505.47;;;4.76;55.59
42169;BME280;27838;43.858;25.974;2023-01-31T00:38:49;100510.72;;;4.81;55.32
42169;BME280;27838;43.858;25.974;2023-01-31T00:41:18;100511.69;;;4.87;55.17
42169;BME280;27838;43.858;25.974;2023-01-31T00:43:45;100520.28;;;4.85;55.29
42169;BME280;27838;43.858;25.974;2023-01-31T00:46:11;100534.94;;;4.87;55.53
42169;BME280;27838;43.858;25.974;2023-01-31T00:48:38;100523.94;;;4.96;54.52
42169;BME280;27838;43.858;25.974;2023-01-31T00:51:05;100523.19;;;5.02;54.77
42169;BME280;27838;43.858;25.974;2023-01-31T00:53:32;100530.91;;;5.00;54.50
42169;BME280;27838;43.858;25.974;2023-01-31T00:56:07;100518.69;;;4.91;54.90
42169;BME280;27838;43.858;25.974;2023-01-31T00:58:35;100524.47;;;4.80;55.72
42169;BME280;27838;43.858;25.974;2023-01-31T01:01:09;100530.59;;;4.85;55.53
42169;BME280;27838;43.858;25.974;2023-01-31T01:03:36;100528.16;;;4.91;55.30
42169;BME280;27838;43.858;25.974;2023-01-31T01:06:03;100522.19;;;4.95;55.39
42169;BME280;27838;43.858;25.974;2023-01-31T01:08:30;100519.50;;;4.90;55.38
42169;BME280;27838;43.858;25.974;2023-01-31T01:11:21;100510.78;;;4.82;55.45
42169;BME280;27838;43.858;25.974;2023-01-31T01:13:49;100511.72;;;4.89;55.30
42169;BME280;27838;43.858;25.974;2023-01-31T01:16:20;100499.69;;;4.88;55.08
42169;BME280;27838;43.858;25.974;2023-01-31T01:18:48;100505.75;;;4.90;55.65
42169;BME280;27838;43.858;25.974;2023-01-31T01:21:20;100501.53;;;4.95;55.38
42169;BME280;27838;43.858;25.974;2023-01-31T01:23:48;100494.69;;;4.97;55.49
42169;BME280;27838;43.858;25.974;2023-01-31T01:26:30;100487.75;;;4.95;55.27
42169;BME280;27838;43.858;25.974;2023-01-31T01:28:57;100497.41;;;5.03;55.07
42169;BME280;27838;43.858;25.974;2023-01-31T01:31:25;100501.75;;;5.06;55.54
42169;BME280;27838;43.858;25.974;2023-01-31T01:33:58;100499.94;;;5.02;55.41
42169;BME280;27838;43.858;25.974;2023-01-31T01:36:25;100505.16;;;5.03;55.77
42169;BME280;27838;43.858;25.974;2023-01-31T01:38:53;100511.94;;;4.98;55.77
42169;BME280;27838;43.858;25.974;2023-01-31T01:41:20;100512.81;;;4.99;55.51
42169;BME280;27838;43.858;25.974;2023-01-31T01:43:55;100525.03;;;5.07;55.94
42169;BME280;27838;43.858;25.974;2023-01-31T01:46:32;100515.28;;;4.94;55.74
42169;BME280;27838;43.858;25.974;2023-01-31T01:49:10;100530.03;;;4.98;55.81
42169;BME280;27838;43.858;25.974;2023-01-31T01:51:38;100530.06;;;5.01;55.83
42169;BME280;27838;43.858;25.974;2023-01-31T01:54:14;100533.50;;;5.00;56.15
42169;BME280;27838;43.858;25.974;2023-01-31T01:56:45;100533.56;;;5.03;56.30
42169;BME280;27838;43.858;25.974;2023-01-31T01:59:19;100533.69;;;5.11;56.10
42169;BME280;27838;43.858;25.974;2023-01-31T02:01:49;100536.22;;;5.08;56.11
42169;BME280;27838;43.858;25.974;2023-01-31T02:04:19;100532.78;;;5.07;56.41
42169;BME280;27838;43.858;25.974;2023-01-31T02:06:46;100526.81;;;5.11;56.50
42169;BME280;27838;43.858;25.974;2023-01-31T02:09:52;100531.09;;;5.09;56.67
42169;BME280;27838;43.858;25.974;2023-01-31T02:12:21;100531.16;;;5.13;56.86
42169;BME280;27838;43.858;25.974;2023-01-31T02:14:49;100534.72;;;5.19;57.09
42169;BME280;27838;43.858;25.974;2023-01-31T02:17:17;100539.88;;;5.18;56.62
42169;BME280;27838;43.858;25.974;2023-01-31T02:20:21;100549.38;;;5.20;57.12
42169;BME280;27838;43.858;25.974;2023-01-31T02:31:20;100555.44;;;5.21;57.36
42169;BME280;27838;43.858;25.974;2023-01-31T02:34:21;100568.34;;;5.22;57.90
42169;BME280;27838;43.858;25.974;2023-01-31T02:36:56;100569.25;;;5.23;58.11
42169;BME280;27838;43.858;25.974;2023-01-31T02:39:53;100570.09;;;5.23;58.33
42169;BME280;27838;43.858;25.974;2023-01-31T02:45:28;100578.59;;;5.16;58.94
42169;BME280;27838;43.858;25.974;2023-01-31T02:53:24;100566.47;;;5.12;59.61
42169;BME280;27838;43.858;25.974;2023-01-31T02:56:06;100572.56;;;5.16;59.67
42169;BME280;27838;43.858;25.974;2023-01-31T02:59:02;100550.88;;;5.09;60.45
42169;BME280;27838;43.858;25.974;2023-01-31T03:01:33;100570.94;;;5.21;59.49
42169;BME280;27838;43.858;25.974;2023-01-31T03:04:06;100569.19;;;5.20;59.64
42169;BME280;27838;43.858;25.974;2023-01-31T03:09:13;100576.09;;;5.22;59.51
42169;BME280;27838;43.858;25.974;2023-01-31T03:14:30;100577.13;;;5.30;59.06
42169;BME280;27838;43.858;25.974;2023-01-31T03:17:22;100577.13;;;5.30;58.75
42169;BME280;27838;43.858;25.974;2023-01-31T03:20:27;100576.28;;;5.30;58.92
42169;BME280;27838;43.858;25.974;2023-01-31T03:23:11;100588.28;;;5.28;58.36
42169;BME280;27838;43.858;25.974;2023-01-31T03:25:39;100596.91;;;5.28;58.41
42169;BME280;27838;43.858;25.974;2023-01-31T03:28:12;100584.91;;;5.32;58.78
42169;BME280;27838;43.858;25.974;2023-01-31T03:31:04;100584.09;;;5.35;58.38
42169;BME280;27838;43.858;25.974;2023-01-31T03:33:39;100590.16;;;5.35;58.97
42169;BME280;27838;43.858;25.974;2023-01-31T03:39:12;100589.47;;;5.44;58.90
42169;BME280;27838;43.858;25.974;2023-01-31T03:47:15;100606.84;;;5.53;58.37
42169;BME280;27838;43.858;25.974;2023-01-31T03:49:44;100606.91;;;5.56;57.98
42169;BME280;27838;43.858;25.974;2023-01-31T03:52:16;100601.66;;;5.51;57.90
42169;BME280;27838;43.858;25.974;2023-01-31T03:54:54;100601.75;;;5.57;58.17
42169;BME280;27838;43.858;25.974;2023-01-31T03:57:25;100612.22;;;5.63;57.61
42169;BME280;27838;43.858;25.974;2023-01-31T03:59:57;100604.44;;;5.62;57.50
42169;BME280;27838;43.858;25.974;2023-01-31T04:02:32;100613.13;;;5.65;57.68
42169;BME280;27838;43.858;25.974;2023-01-31T04:05:03;100615.72;;;5.67;57.39
42169;BME280;27838;43.858;25.974;2023-01-31T04:07:32;100625.22;;;5.66;57.51
42169;BME280;27838;43.858;25.974;2023-01-31T04:09:59;100626.00;;;5.64;57.26
42169;BME280;27838;43.858;25.974;2023-01-31T04:12:26;100622.59;;;5.65;57.53
42169;BME280;27838;43.858;25.974;2023-01-31T04:14:52;100621.72;;;5.66;57.38
42169;BME280;27838;43.858;25.974;2023-01-31T04:17:19;100611.16;;;5.54;57.26
42169;BME280;27838;43.858;25.974;2023-01-31T04:19:45;100632.84;;;5.60;57.21
42169;BME280;27838;43.858;25.974;2023-01-31T04:22:11;100625.94;;;5.59;57.34
42169;BME280;27838;43.858;25.974;2023-01-31T04:24:38;100625.06;;;5.59;57.40
42169;BME280;27838;43.858;25.974;2023-01-31T04:27:05;100619.88;;;5.59;57.51
42169;BME280;27838;43.858;25.974;2023-01-31T04:29:31;100630.22;;;5.59;57.84
42169;BME280;27838;43.858;25.974;2023-01-31T04:31:57;100636.28;;;5.59;58.09
42169;BME280;27838;43.858;25.974;2023-01-31T04:34:24;100637.19;;;5.61;58.05
42169;BME280;27838;43.858;25.974;2023-01-31T04:36:51;100634.53;;;5.58;57.76
42169;BME280;27838;43.858;25.974;2023-01-31T04:39:17;100640.53;;;5.56;58.20
42169;BME280;27838;43.858;25.974;2023-01-31T04:41:44;100640.47;;;5.53;58.26
42169;BME280;27838;43.858;25.974;2023-01-31T04:44:10;100645.72;;;5.59;58.25
42169;BME280;27838;43.858;25.974;2023-01-31T04:46:37;100650.97;;;5.62;58.51
42169;BME280;27838;43.858;25.974;2023-01-31T04:49:04;100657.94;;;5.66;58.35
42169;BME280;27838;43.858;25.974;2023-01-31T04:51:30;100658.84;;;5.66;57.61
42169;BME280;27838;43.858;25.974;2023-01-31T04:53:57;100654.47;;;5.64;57.98
42169;BME280;27838;43.858;25.974;2023-01-31T04:56:23;100661.41;;;5.66;58.72
42169;BME280;27838;43.858;25.974;2023-01-31T04:58:50;100660.59;;;5.69;57.80
42169;BME280;27838;43.858;25.974;2023-01-31T05:01:17;100655.41;;;5.69;58.73
42169;BME280;27838;43.858;25.974;2023-01-31T05:03:43;100663.31;;;5.75;58.28
42169;BME280;27838;43.858;25.974;2023-01-31T05:06:10;100655.50;;;5.74;57.23
42169;BME280;27838;43.858;25.974;2023-01-31T05:08:36;100649.41;;;5.70;57.25
42169;BME280;27838;43.858;25.974;2023-01-31T05:11:03;100655.56;;;5.77;57.29
42169;BME280;27838;43.858;25.974;2023-01-31T05:13:32;100654.81;;;5.82;57.53
42169;BME280;27838;43.858;25.974;2023-01-31T05:16:06;100645.88;;;5.65;55.83
42169;BME280;27838;43.858;25.974;2023-01-31T05:18:33;100650.00;;;5.57;56.08
42169;BME280;27838;43.858;25.974;2023-01-31T05:21:01;100642.25;;;5.57;55.90
42169;BME280;27838;43.858;25.974;2023-01-31T05:23:28;100639.75;;;5.60;56.04
42169;BME280;27838;43.858;25.974;2023-01-31T05:25:55;100638.03;;;5.62;55.99
42169;BME280;27838;43.858;25.974;2023-01-31T05:28:22;100628.72;;;5.70;56.18
42169;BME280;27838;43.858;25.974;2023-01-31T05:30:53;100632.13;;;5.69;56.23
42169;BME280;27838;43.858;25.974;2023-01-31T05:33:20;100643.34;;;5.70;55.43
42169;BME280;27838;43.858;25.974;2023-01-31T05:35:47;100633.84;;;5.67;55.57
42169;BME280;27838;43.858;25.974;2023-01-31T05:38:14;100635.53;;;5.65;55.87
42169;BME280;27838;43.858;25.974;2023-01-31T05:40:41;100639.13;;;5.73;55.63
42169;BME280;27838;43.858;25.974;2023-01-31T05:43:07;100643.44;;;5.74;55.25
42169;BME280;27838;43.858;25.974;2023-01-31T05:45:34;100657.28;;;5.76;55.52
42169;BME280;27838;43.858;25.974;2023-01-31T05:48:00;100655.47;;;5.72;55.19
42169;BME280;27838;43.858;25.974;2023-01-31T05:50:27;100664.94;;;5.70;54.69
42169;BME280;27838;43.858;25.974;2023-01-31T05:52:57;100672.63;;;5.67;55.68
42169;BME280;27838;43.858;25.974;2023-01-31T05:55:24;100662.13;;;5.58;55.56
42169;BME280;27838;43.858;25.974;2023-01-31T05:57:52;100675.91;;;5.58;55.79
42169;BME280;27838;43.858;25.974;2023-01-31T06:00:19;100688.72;;;5.54;55.98
42169;BME280;27838;43.858;25.974;2023-01-31T06:02:45;100692.94;;;5.48;55.87
42169;BME280;27838;43.858;25.974;2023-01-31T06:05:13;100681.63;;;5.42;56.36
42169;BME280;27838;43.858;25.974;2023-01-31T06:07:40;100702.44;;;5.49;56.61
42169;BME280;27838;43.858;25.974;2023-01-31T06:10:09;100704.19;;;5.52;56.18
42169;BME280;27838;43.858;25.974;2023-01-31T06:12:36;100712.94;;;5.56;56.00
42169;BME280;27838;43.858;25.974;2023-01-31T06:15:03;100709.47;;;5.57;56.24
42169;BME280;27838;43.858;25.974;2023-01-31T06:17:30;100717.31;;;5.60;56.59
42169;BME280;27838;43.858;25.974;2023-01-31T06:19:56;100715.50;;;5.56;56.66
42169;BME280;27838;43.858;25.974;2023-01-31T06:22:23;100704.25;;;5.54;56.11
42169;BME280;27838;43.858;25.974;2023-01-31T06:24:49;100705.16;;;5.57;56.20
42169;BME280;27838;43.858;25.974;2023-01-31T06:27:16;100698.09;;;5.48;56.55
42169;BME280;27838;43.858;25.974;2023-01-31T06:29:42;100710.41;;;5.60;56.15
42169;BME280;27838;43.858;25.974;2023-01-31T06:32:09;100708.69;;;5.61;56.96
42169;BME280;27838;43.858;25.974;2023-01-31T06:34:35;100698.38;;;5.62;56.59
42169;BME280;27838;43.858;25.974;2023-01-31T06:37:02;100694.03;;;5.60;56.71
42169;BME280;27838;43.858;25.974;2023-01-31T06:39:28;100705.28;;;5.62;56.65
42169;BME280;27838;43.858;25.974;2023-01-31T06:41:55;100709.66;;;5.66;56.49
42169;BME280;27838;43.858;25.974;2023-01-31T06:44:21;100717.47;;;5.69;56.86
42169;BME280;27838;43.858;25.974;2023-01-31T06:46:48;100718.28;;;5.65;56.83
42169;BME280;27838;43.858;25.974;2023-01-31T06:49:14;100730.47;;;5.72;56.39
42169;BME280;27838;43.858;25.974;2023-01-31T06:51:41;100725.38;;;5.75;56.86
42169;BME280;27838;43.858;25.974;2023-01-31T06:54:08;100727.16;;;5.79;56.59
42169;BME280;27838;43.858;25.974;2023-01-31T06:56:34;100724.66;;;5.82;56.54
42169;BME280;27838;43.858;25.974;2023-01-31T06:59:01;100720.38;;;5.84;56.62
42169;BME280;27838;43.858;25.974;2023-01-31T07:01:27;100727.25;;;5.82;56.86
42169;BME280;27838;43.858;25.974;2023-01-31T07:03:54;100729.00;;;5.85;56.51
42169;BME280;27838;43.858;25.974;2023-01-31T07:06:20;100732.53;;;5.90;57.00
42169;BME280;27838;43.858;25.974;2023-01-31T07:08:47;100740.38;;;5.93;56.27
42169;BME280;27838;43.858;25.974;2023-01-31T07:11:13;100743.09;;;5.98;55.83
42169;BME280;27838;43.858;25.974;2023-01-31T07:13:40;100755.16;;;5.99;55.53
42169;BME280;27838;43.858;25.974;2023-01-31T07:16:06;100745.59;;;5.95;55.46
42169;BME280;27838;43.858;25.974;2023-01-31T07:18:33;100744.56;;;5.86;55.85
42169;BME280;27838;43.858;25.974;2023-01-31T07:21:00;100748.00;;;5.85;55.98
42169;BME280;27838;43.858;25.974;2023-01-31T07:23:26;100765.38;;;5.93;55.56
42169;BME280;27838;43.858;25.974;2023-01-31T07:25:53;100757.59;;;5.91;55.76
42169;BME280;27838;43.858;25.974;2023-01-31T07:28:19;100761.84;;;5.88;55.85
42169;BME280;27838;43.858;25.974;2023-01-31T07:30:46;100761.94;;;5.94;55.79
42169;BME280;27838;43.858;25.974;2023-01-31T07:33:12;100760.13;;;5.90;56.17
42169;BME280;27838;43.858;25.974;2023-01-31T07:35:41;100766.34;;;5.96;55.70
42169;BME280;27838;43.858;25.974;2023-01-31T07:38:08;100773.38;;;6.03;55.59
42169;BME280;27838;43.858;25.974;2023-01-31T07:40:34;100778.69;;;6.11;55.06
42169;BME280;27838;43.858;25.974;2023-01-31T07:43:01;100779.59;;;6.13;54.45
42169;BME280;27838;43.858;25.974;2023-01-31T07:45:27;100776.16;;;6.14;54.41
42169;BME280;27838;43.858;25.974;2023-01-31T07:47:56;100767.44;;;6.09;54.43
42169;BME280;27838;43.858;25.974;2023-01-31T07:50:23;100769.13;;;6.07;54.42
42169;BME280;27838;43.858;25.974;2023-01-31T07:52:51;100778.66;;;6.10;54.76
42169;BME280;27838;43.858;25.974;2023-01-31T07:55:17;100777.81;;;6.11;54.79
42169;BME280;27838;43.858;25.974;2023-01-31T07:57:44;100782.13;;;6.10;54.27
42169;BME280;27838;43.858;25.974;2023-01-31T08:00:11;100785.63;;;6.12;53.84
42169;BME280;27838;43.858;25.974;2023-01-31T08:02:51;100787.38;;;6.15;53.35
42169;BME280;27838;43.858;25.974;2023-01-31T08:05:35;100783.03;;;6.12;53.71
42169;BME280;27838;43.858;25.974;2023-01-31T08:08:02;100788.28;;;6.15;53.95
42169;BME280;27838;43.858;25.974;2023-01-31T08:10:35;100793.31;;;6.09;53.52
42169;BME280;27838;43.858;25.974;2023-01-31T08:13:02;100797.69;;;6.12;53.19
42169;BME280;27838;43.858;25.974;2023-01-31T08:15:29;100799.47;;;6.14;53.19
42169;BME280;27838;43.858;25.974;2023-01-31T08:17:55;100789.00;;;6.10;53.73
42169;BME280;27838;43.858;25.974;2023-01-31T08:20:22;100787.31;;;6.10;53.35
42169;BME280;27838;43.858;25.974;2023-01-31T08:22:48;100785.56;;;6.09;53.40
42169;BME280;27838;43.858;25.974;2023-01-31T08:25:15;100781.34;;;6.14;53.73
42169;BME280;27838;43.858;25.974;2023-01-31T08:27:41;100783.13;;;6.18;53.21
42169;BME280;27838;43.858;25.974;2023-01-31T08:30:09;100794.38;;;6.19;54.17
42169;BME280;27838;43.858;25.974;2023-01-31T08:32:36;100790.06;;;6.19;54.23
42169;BME280;27838;43.858;25.974;2023-01-31T08:35:02;100791.03;;;6.24;54.23
42169;BME280;27838;43.858;25.974;2023-01-31T08:37:29;100795.34;;;6.24;54.21
42169;BME280;27838;43.858;25.974;2023-01-31T08:39:56;100793.63;;;6.24;53.85
42169;BME280;27838;43.858;25.974;2023-01-31T08:42:23;100797.16;;;6.30;54.52
42169;BME280;27838;43.858;25.974;2023-01-31T08:44:50;100797.00;;;6.22;54.19
42169;BME280;27838;43.858;25.974;2023-01-31T08:47:16;100796.78;;;6.08;55.07
42169;BME280;27838;43.858;25.974;2023-01-31T08:49:43;100785.34;;;5.98;55.24
42169;BME280;27838;43.858;25.974;2023-01-31T08:52:09;100799.41;;;6.11;55.26
42169;BME280;27838;43.858;25.974;2023-01-31T08:54:36;100798.59;;;6.14;54.51
42169;BME280;27838;43.858;25.974;2023-01-31T08:57:02;100809.84;;;6.16;54.37
42169;BME280;27838;43.858;25.974;2023-01-31T08:59:29;100814.00;;;6.08;54.09
42169;BME280;27838;43.858;25.974;2023-01-31T09:01:55;100806.16;;;6.04;54.20
42169;BME280;27838;43.858;25.974;2023-01-31T09:04:22;100806.09;;;6.00;53.95
42169;BME280;27838;43.858;25.974;2023-01-31T09:06:48;100817.34;;;6.02;53.21
42169;BME280;27838;43.858;25.974;2023-01-31T09:09:15;100822.56;;;6.05;53.71
42169;BME280;27838;43.858;25.974;2023-01-31T09:11:41;100816.63;;;6.09;54.80
42169;BME280;27838;43.858;25.974;2023-01-31T09:14:07;100816.53;;;6.06;53.93
42169;BME280;27838;43.858;25.974;2023-01-31T09:16:34;100821.69;;;6.04;54.21
42169;BME280;27838;43.858;25.974;2023-01-31T09:19:01;100830.34;;;6.05;54.60
42169;BME280;27838;43.858;25.974;2023-01-31T09:21:27;100831.31;;;6.10;55.01
42169;BME280;27838;43.858;25.974;2023-01-31T09:23:56;100833.94;;;6.12;54.95
42169;BME280;27838;43.858;25.974;2023-01-31T09:26:23;100823.56;;;6.12;55.08
42169;BME280;27838;43.858;25.974;2023-01-31T09:28:50;100833.00;;;6.10;54.92
42169;BME280;27838;43.858;25.974;2023-01-31T09:31:18;100837.50;;;6.17;54.55
42169;BME280;27838;43.858;25.974;2023-01-31T09:33:46;100829.78;;;6.21;54.85
42169;BME280;27838;43.858;25.974;2023-01-31T09:36:15;100825.56;;;6.27;54.39
42169;BME280;27838;43.858;25.974;2023-01-31T09:38:42;100823.81;;;6.24;54.72
42169;BME280;27838;43.858;25.974;2023-01-31T09:41:32;100827.31;;;6.26;54.66
42169;BME280;27838;43.858;25.974;2023-01-31T09:44:06;100829.94;;;6.28;55.13
42169;BME280;27838;43.858;25.974;2023-01-31T09:46:39;100841.19;;;6.30;54.92
42169;BME280;27838;43.858;25.974;2023-01-31T09:49:14;100832.53;;;6.31;55.53
42169;BME280;27838;43.858;25.974;2023-01-31T09:51:42;100841.25;;;6.33;55.17
42169;BME280;27838;43.858;25.974;2023-01-31T09:54:27;100841.41;;;6.42;55.21
42169;BME280;27838;43.858;25.974;2023-01-31T09:57:03;100838.91;;;6.48;55.06
42169;BME280;27838;43.858;25.974;2023-01-31T09:59:55;100839.84;;;6.50;55.12
42169;BME280;27838;43.858;25.974;2023-01-31T10:06:07;100825.97;;;6.48;55.52
42169;BME280;27838;43.858;25.974;2023-01-31T10:10:43;100819.13;;;6.50;55.20
42169;BME280;27838;43.858;25.974;2023-01-31T10:13:25;100808.72;;;6.47;55.07
42169;BME280;27838;43.858;25.974;2023-01-31T10:18:48;100797.38;;;6.42;56.21
42169;BME280;27838;43.858;25.974;2023-01-31T10:21:19;100779.28;;;6.43;56.27
42169;BME280;27838;43.858;25.974;2023-01-31T10:23:51;100783.78;;;6.54;56.18
42169;BME280;27838;43.858;25.974;2023-01-31T10:26:27;100788.19;;;6.59;54.93
42169;BME280;27838;43.858;25.974;2023-01-31T10:29:05;100781.25;;;6.58;54.85
42169;BME280;27838;43.858;25.974;2023-01-31T10:31:55;100790.06;;;6.68;55.97
42169;BME280;27838;43.858;25.974;2023-01-31T10:37:35;100789.56;;;6.89;55.56
42169;BME280;27838;43.858;25.974;2023-01-31T10:40:12;100782.81;;;7.00;54.37
42169;BME280;27838;43.858;25.974;2023-01-31T10:42:41;100785.41;;;7.00;54.42
42169;BME280;27838;43.858;25.974;2023-01-31T10:45:16;100788.16;;;7.10;54.70
42169;BME280;27838;43.858;25.974;2023-01-31T10:47:52;100787.34;;;7.14;53.63
42169;BME280;27838;43.858;25.974;2023-01-31T10:56:05;100785.22;;;7.45;51.49
42169;BME280;27838;43.858;25.974;2023-01-31T10:58:33;100784.47;;;7.55;51.93
42169;BME280;27838;43.858;25.974;2023-01-31T11:01:05;100783.81;;;7.71;51.68
42169;BME280;27838;43.858;25.974;2023-01-31T11:03:36;100789.25;;;7.90;52.52
42169;BME280;27838;43.858;25.974;2023-01-31T11:06:03;100781.69;;;8.11;52.61
42169;BME280;27838;43.858;25.974;2023-01-31T11:08:41;100774.84;;;8.18;50.46
42169;BME280;27838;43.858;25.974;2023-01-31T11:11:11;100775.78;;;8.25;50.66
42169;BME280;27838;43.858;25.974;2023-01-31T11:13:40;100772.41;;;8.35;50.28
42169;BME280;27838;43.858;25.974;2023-01-31T11:16:09;100762.22;;;8.54;50.55
42169;BME280;27838;43.858;25.974;2023-01-31T11:18:47;100766.66;;;8.65;50.11
42169;BME280;27838;43.858;25.974;2023-01-31T11:21:24;100771.09;;;8.77;49.30
42169;BME280;27838;43.858;25.974;2023-01-31T11:23:57;100766.78;;;8.82;49.03
42169;BME280;27838;43.858;25.974;2023-01-31T11:26:30;100773.81;;;8.93;49.59
42169;BME280;27838;43.858;25.974;2023-01-31T11:28:57;100766.06;;;8.99;48.30
42169;BME280;27838;43.858;25.974;2023-01-31T11:31:39;100769.50;;;8.98;47.87
42169;BME280;27838;43.858;25.974;2023-01-31T11:34:29;100772.00;;;8.79;47.89
42169;BME280;27838;43.858;25.974;2023-01-31T11:37:04;100768.38;;;8.63;48.97
42169;BME280;27838;43.858;25.974;2023-01-31T11:39:35;100763.94;;;8.52;48.86
42169;BME280;27838;43.858;25.974;2023-01-31T11:42:22;100767.34;;;8.44;48.77
42169;BME280;27838;43.858;25.974;2023-01-31T11:45:01;100775.94;;;8.39;48.44
42169;BME280;27838;43.858;25.974;2023-01-31T11:50:03;100772.41;;;8.35;49.21
42169;BME280;27838;43.858;25.974;2023-01-31T11:52:32;100772.41;;;8.34;49.50
42169;BME280;27838;43.858;25.974;2023-01-31T11:55:05;100771.53;;;8.33;49.49
42169;BME280;27838;43.858;25.974;2023-01-31T11:57:34;100768.97;;;8.36;49.71
42169;BME280;27838;43.858;25.974;2023-01-31T12:00:16;100771.47;;;8.27;49.51
42169;BME280;27838;43.858;25.974;2023-01-31T12:02:47;100774.78;;;8.13;49.46
42169;BME280;27838;43.858;25.974;2023-01-31T12:05:17;100782.53;;;8.07;50.07
42169;BME280;27838;43.858;25.974;2023-01-31T12:07:49;100778.81;;;7.87;50.28
42169;BME280;27838;43.858;25.974;2023-01-31T12:10:27;100783.06;;;7.80;50.87
42169;BME280;27838;43.858;25.974;2023-01-31T12:13:01;100779.56;;;7.77;51.03
42169;BME280;27838;43.858;25.974;2023-01-31T12:15:29;100777.78;;;7.74;50.63
42169;BME280;27838;43.858;25.974;2023-01-31T12:17:58;100789.06;;;7.74;50.79
42169;BME280;27838;43.858;25.974;2023-01-31T12:20:44;100787.28;;;7.73;51.18
42169;BME280;27838;43.858;25.974;2023-01-31T12:23:17;100782.91;;;7.68;51.92
42169;BME280;27838;43.858;25.974;2023-01-31T12:26:00;100781.88;;;7.53;52.99
42169;BME280;27838;43.858;25.974;2023-01-31T12:39:31;100807.69;;;7.47;52.87
42169;BME280;27838;43.858;25.974;2023-01-31T12:42:13;100808.75;;;7.60;52.07
42169;BME280;27838;43.858;25.974;2023-01-31T12:50:29;100798.66;;;7.82;50.80
42169;BME280;27838;43.858;25.974;2023-01-31T12:56:02;100808.97;;;7.77;50.75
42169;BME280;27838;43.858;25.974;2023-01-31T12:58:35;100812.38;;;7.73;50.41
42169;BME280;27838;43.858;25.974;2023-01-31T13:01:09;100815.03;;;7.78;50.96
42169;BME280;27838;43.858;25.974;2023-01-31T13:06:29;100810.63;;;7.72;50.13
42169;BME280;27838;43.858;25.974;2023-01-31T13:09:16;100815.03;;;7.79;50.65
42169;BME280;27838;43.858;25.974;2023-01-31T13:11:53;100815.91;;;7.78;51.14
42169;BME280;27838;43.858;25.974;2023-01-31T13:14:24;100824.38;;;7.65;51.47
42169;BME280;27838;43.858;25.974;2023-01-31T13:16:54;100807.94;;;7.64;51.33
42169;BME280;27838;43.858;25.974;2023-01-31T13:22:04;100806.53;;;7.91;51.00
42169;BME280;27838;43.858;25.974;2023-01-31T13:24:39;100808.47;;;8.06;51.05
42169;BME280;27838;43.858;25.974;2023-01-31T13:27:33;100820.69;;;8.15;50.36
42169;BME280;27838;43.858;25.974;2023-01-31T13:30:13;100825.81;;;8.10;49.78
42169;BME280;27838;43.858;25.974;2023-01-31T13:32:48;100833.63;;;8.13;49.78
42169;BME280;27838;43.858;25.974;2023-01-31T13:35:23;100841.44;;;8.15;49.87
42169;BME280;27838;43.858;25.974;2023-01-31T13:37:55;100845.84;;;8.22;50.42
42169;BME280;27838;43.858;25.974;2023-01-31T13:40:27;100840.66;;;8.22;49.97
42169;BME280;27838;43.858;25.974;2023-01-31T13:43:05;100827.59;;;8.12;49.04
42169;BME280;27838;43.858;25.974;2023-01-31T13:45:42;100830.00;;;8.00;49.25
42169;BME280;27838;43.858;25.974;2023-01-31T13:53:23;100823.16;;;8.04;49.41
42169;BME280;27838;43.858;25.974;2023-01-31T13:55:52;100827.50;;;8.06;48.11
42169;BME280;27838;43.858;25.974;2023-01-31T13:58:23;100824.81;;;7.99;47.10
42169;BME280;27838;43.858;25.974;2023-01-31T14:01:11;100820.44;;;7.96;47.70
42169;BME280;27838;43.858;25.974;2023-01-31T14:09:35;100838.88;;;8.18;48.00
42169;BME280;27838;43.858;25.974;2023-01-31T14:17:12;100855.88;;;7.92;48.35
42169;BME280;27838;43.858;25.974;2023-01-31T14:27:22;100871.84;;;7.59;49.53
42169;BME280;27838;43.858;25.974;2023-01-31T14:54:36;100885.53;;;7.49;50.70
42169;BME280;27838;43.858;25.974;2023-01-31T14:57:15;100886.44;;;7.52;50.20
42169;BME280;27838;43.858;25.974;2023-01-31T15:00:00;100889.13;;;7.57;50.73
42169;BME280;27838;43.858;25.974;2023-01-31T15:08:04;100887.50;;;7.65;50.24
42169;BME280;27838;43.858;25.974;2023-01-31T15:15:59;100904.09;;;7.77;49.68
42169;BME280;27838;43.858;25.974;2023-01-31T15:18:28;100889.34;;;7.72;50.17
42169;BME280;27838;43.858;25.974;2023-01-31T15:20:57;100896.31;;;7.75;50.08
42169;BME280;27838;43.858;25.974;2023-01-31T15:23:27;100902.34;;;7.75;50.41
42169;BME280;27838;43.858;25.974;2023-01-31T15:25:56;100894.53;;;7.72;49.17